Time;durP1;ratioP1;P1;durP2;ratioP2;P2;SDS_P1;SDS_P2;PMS_P1;PMS_P2;Temp;Humidity;BMP_temperature;BMP_pressure;BME280_temperature;BME280_humidity;BME280_pressure;Samples;Min_cycle;Max_cycle;Signal;HPM_P1;HPM_P2
2021/07/12 00:02:01;;;;;;;18.95;17.27;;;18.30;99.90;;;;;;5032151;28;20494;-66
2021/07/12 00:04:26;;;;;;;20.85;19.10;;;18.30;99.90;;;;;;5033382;28;20044;-67
2021/07/12 00:06:52;;;;;;;17.92;16.40;;;18.40;99.90;;;;;;5033165;28;20120;-67
2021/07/12 00:09:18;;;;;;;33.60;18.55;;;18.30;99.90;;;;;;5032354;28;20034;-66
2021/07/12 00:11:43;;;;;;;17.55;16.05;;;18.20;99.90;;;;;;5032551;28;20049;-66
2021/07/12 00:14:09;;;;;;;16.60;15.35;;;18.30;99.90;;;;;;5017777;28;20092;-67
2021/07/12 00:16:36;;;;;;;18.52;16.92;;;18.30;99.90;;;;;;5018254;28;20034;-66
2021/07/12 00:19:03;;;;;;;20.13;18.33;;;18.30;99.90;;;;;;5033463;28;20041;-66
2021/07/12 00:21:29;;;;;;;17.23;15.82;;;18.20;99.90;;;;;;5033325;28;20594;-66
2021/07/12 00:23:55;;;;;;;19.35;17.63;;;18.30;99.90;;;;;;5033692;28;20041;-67
2021/07/12 00:26:20;;;;;;;17.17;15.77;;;18.20;99.90;;;;;;5032326;28;20107;-66
2021/07/12 00:28:46;;;;;;;21.00;19.02;;;18.20;99.90;;;;;;5031736;28;20045;-66
2021/07/12 00:31:12;;;;;;;20.70;19.00;;;18.20;99.90;;;;;;5033187;28;20037;-66
2021/07/12 00:33:39;;;;;;;21.10;19.30;;;18.10;99.90;;;;;;5033054;28;20627;-67
2021/07/12 00:36:06;;;;;;;19.38;17.73;;;18.10;99.90;;;;;;5033409;28;20065;-67
2021/07/12 00:38:32;;;;;;;19.45;17.85;;;18.20;99.90;;;;;;5015267;28;20111;-67
2021/07/12 00:40:58;;;;;;;18.58;17.08;;;18.10;99.90;;;;;;5032613;28;20041;-66
2021/07/12 00:43:24;;;;;;;18.58;17.08;;;18.20;99.90;;;;;;5032022;28;20041;-66
2021/07/12 00:45:51;;;;;;;19.33;17.73;;;18.20;99.90;;;;;;5027761;28;20513;-67
2021/07/12 00:48:16;;;;;;;17.63;16.23;;;18.30;99.90;;;;;;5033090;28;20398;-66
2021/07/12 00:50:44;;;;;;;18.45;16.95;;;18.30;99.90;;;;;;5032636;28;20033;-66
2021/07/12 00:53:10;;;;;;;19.48;17.88;;;18.30;99.90;;;;;;5033033;28;20144;-66
2021/07/12 00:55:48;;;;;;;18.55;17.05;;;18.40;99.90;;;;;;5032571;28;20091;-66
2021/07/12 00:58:19;;;;;;;19.95;18.40;;;18.40;99.90;;;;;;5014942;28;20064;-66
2021/07/12 01:00:49;;;;;;;19.20;17.48;;;18.40;99.90;;;;;;5030590;28;20042;-67
2021/07/12 01:03:16;;;;;;;18.65;17.15;;;18.40;99.90;;;;;;5032658;28;20073;-66
2021/07/12 01:05:42;;;;;;;20.20;18.45;;;18.40;99.90;;;;;;5032375;28;20037;-67
2021/07/12 01:08:08;;;;;;;19.60;18.00;;;18.50;99.90;;;;;;5032594;28;20045;-67
2021/07/12 01:10:35;;;;;;;20.38;18.58;;;18.50;99.90;;;;;;5032512;28;20069;-67
2021/07/12 01:13:21;;;;;;;19.58;17.98;;;18.50;99.90;;;;;;5046085;28;20421;-66
2021/07/12 01:15:55;;;;;;;20.50;18.90;;;18.50;99.90;;;;;;5033376;28;20545;-66
2021/07/12 01:18:31;;;;;;;17.70;16.30;;;18.60;99.90;;;;;;5012011;28;20096;-66
2021/07/12 01:21:16;;;;;;;20.02;18.40;;;18.50;99.90;;;;;;5028368;28;20033;-66
2021/07/12 01:24:14;;;;;;;19.27;17.67;;;18.50;99.90;;;;;;5032423;28;20037;-66
2021/07/12 01:27:04;;;;;;;18.88;17.38;;;18.60;99.90;;;;;;5014298;28;20049;-66
2021/07/12 01:30:01;;;;;;;20.45;18.65;;;18.50;99.90;;;;;;5032315;28;20045;-66
2021/07/12 01:32:39;;;;;;;20.05;18.35;;;18.50;99.90;;;;;;5032022;28;20041;-66
2021/07/12 01:35:09;;;;;;;20.17;18.48;;;18.60;99.90;;;;;;5028587;28;20041;-67
2021/07/12 01:37:54;;;;;;;20.02;18.50;;;18.60;99.90;;;;;;5031658;28;20048;-67
2021/07/12 01:40:43;;;;;;;20.65;18.90;;;18.50;99.90;;;;;;5032051;28;20040;-66
2021/07/12 01:43:24;;;;;;;21.77;19.83;;;18.50;99.90;;;;;;5031767;28;20033;-67
2021/07/12 01:46:15;;;;;;;20.63;18.92;;;18.40;99.90;;;;;;5031128;28;20116;-67
2021/07/12 01:48:59;;;;;;;20.70;18.88;;;18.40;99.90;;;;;;5030921;28;20463;-66
2021/07/12 01:51:35;;;;;;;20.27;18.63;;;18.40;99.90;;;;;;5028041;28;20034;-66
2021/07/12 01:54:16;;;;;;;20.73;19.02;;;18.30;99.90;;;;;;5032761;28;20029;-67
2021/07/12 01:57:05;;;;;;;21.65;19.85;;;18.30;99.90;;;;;;5043002;28;20061;-66
2021/07/12 01:59:40;;;;;;;19.48;17.95;;;18.30;99.90;;;;;;5013782;28;20045;-66
2021/07/12 02:02:07;;;;;;;20.00;18.30;;;18.20;99.90;;;;;;5031714;28;20037;-66
2021/07/12 02:04:34;;;;;;;19.80;18.20;;;18.20;99.90;;;;;;5031464;28;20595;-66
2021/07/12 02:07:01;;;;;;;22.55;20.65;;;18.10;99.90;;;;;;5029504;28;20044;-66
2021/07/12 02:09:28;;;;;;;21.38;19.63;;;18.10;99.90;;;;;;5031262;28;20053;-67
2021/07/12 02:11:58;;;;;;;19.55;18.02;;;18.10;99.90;;;;;;5030973;28;20053;-66
2021/07/12 02:14:26;;;;;;;19.15;17.52;;;18.00;99.90;;;;;;5031477;28;20479;-66
2021/07/12 02:16:54;;;;;;;20.17;18.48;;;18.00;99.90;;;;;;5031181;28;20040;-66
2021/07/12 02:19:21;;;;;;;20.10;18.50;;;17.90;99.90;;;;;;5031333;28;20049;-66
2021/07/12 02:21:49;;;;;;;22.15;20.15;;;17.90;99.90;;;;;;5031332;28;20044;-66
2021/07/12 02:24:17;;;;;;;27.20;20.08;;;17.80;99.90;;;;;;5028633;28;20034;-66
2021/07/12 02:26:44;;;;;;;65.50;19.67;;;17.70;99.90;;;;;;5031006;28;20128;-67
2021/07/12 02:29:11;;;;;;;95.35;16.77;;;17.60;99.90;;;;;;5031182;28;20117;-66
2021/07/12 02:31:38;;;;;;;16.50;15.10;;;17.60;99.90;;;;;;5013593;28;20092;-66
2021/07/12 02:34:05;;;;;;;29.90;16.58;;;17.60;99.90;;;;;;5030895;28;20064;-66
2021/07/12 02:36:32;;;;;;;61.40;16.92;;;17.60;99.90;;;;;;5013592;28;20055;-66
2021/07/12 02:39:01;;;;;;;130.55;17.65;;;17.60;99.90;;;;;;5031076;28;20056;-66
2021/07/12 02:41:28;;;;;;;52.20;16.58;;;17.70;99.90;;;;;;5025152;28;20041;-66
2021/07/12 02:43:54;;;;;;;68.32;18.65;;;17.60;99.90;;;;;;5026604;28;20041;-66
2021/07/12 02:46:22;;;;;;;17.42;15.82;;;17.60;99.90;;;;;;5030201;28;20038;-66
2021/07/12 02:48:48;;;;;;;17.05;15.30;;;17.60;99.90;;;;;;5027698;28;20041;-66
2021/07/12 02:51:17;;;;;;;19.10;16.77;;;17.70;99.90;;;;;;5041977;28;20055;-67
2021/07/12 02:53:49;;;;;;;19.17;17.42;;;17.60;99.90;;;;;;5031458;28;20367;-66
2021/07/12 02:56:15;;;;;;;17.58;16.05;;;17.70;99.90;;;;;;5031177;28;20048;-66
2021/07/12 02:58:40;;;;;;;19.05;16.98;;;17.80;99.90;;;;;;5008966;28;20030;-67
2021/07/12 03:01:06;;;;;;;24.08;17.75;;;17.80;99.90;;;;;;5030740;28;20094;-66
2021/07/12 03:03:32;;;;;;;20.13;18.27;;;17.70;99.90;;;;;;5030826;28;20438;-66
2021/07/12 03:06:05;;;;;;;32.90;17.88;;;17.80;99.90;;;;;;5030863;28;20037;-66
2021/07/12 03:08:38;;;;;;;19.60;18.00;;;17.80;99.90;;;;;;5030937;28;20072;-66
2021/07/12 03:11:08;;;;;;;20.23;18.52;;;17.70;99.90;;;;;;5030535;28;20061;-66
2021/07/12 03:13:49;;;;;;;17.40;16.00;;;17.70;99.90;;;;;;5030452;28;20124;-66
2021/07/12 03:16:16;;;;;;;16.87;15.47;;;17.70;99.90;;;;;;5011768;28;20535;-67
2021/07/12 03:18:50;;;;;;;17.88;16.27;;;17.70;99.90;;;;;;5026850;28;20126;-66
2021/07/12 03:21:18;;;;;;;17.85;16.48;;;17.70;99.90;;;;;;5030444;28;20107;-66
2021/07/12 03:23:46;;;;;;;19.08;17.48;;;17.80;99.90;;;;;;5030004;28;20033;-66
2021/07/12 03:26:15;;;;;;;17.50;16.10;;;17.70;99.90;;;;;;5063762;23;20135;-68
2021/07/12 03:28:41;;;;;;;19.58;17.80;;;17.80;99.90;;;;;;5051134;28;20049;-68
2021/07/12 03:31:10;;;;;;;19.58;17.98;;;17.80;99.90;;;;;;5049997;28;20482;-68
2021/07/12 03:33:38;;;;;;;19.85;18.05;;;17.80;99.90;;;;;;5049273;28;20128;-69
2021/07/12 03:36:05;;;;;;;20.45;18.48;;;17.70;99.90;;;;;;5052027;28;20045;-68
2021/07/12 03:38:32;;;;;;;27.75;18.55;;;17.70;99.90;;;;;;5053811;28;20033;-68
2021/07/12 03:41:00;;;;;;;31.40;18.17;;;17.60;99.90;;;;;;5052895;28;20068;-69
2021/07/12 03:43:25;;;;;;;18.75;17.05;;;17.60;99.90;;;;;;5063876;28;20036;-69
2021/07/12 03:45:57;;;;;;;19.40;17.55;;;17.50;99.90;;;;;;5067419;28;20080;-68
2021/07/12 03:48:37;;;;;;;21.08;18.73;;;17.60;99.90;;;;;;5049579;28;20409;-68
2021/07/12 03:51:05;;;;;;;36.20;19.15;;;17.70;99.90;;;;;;5052404;28;20029;-68
2021/07/12 03:53:32;;;;;;;19.48;17.45;;;17.70;99.90;;;;;;5053195;28;20043;-68
2021/07/12 03:55:59;;;;;;;18.73;17.02;;;17.70;99.90;;;;;;5052348;28;20040;-68
2021/07/12 03:58:25;;;;;;;18.35;16.60;;;17.80;99.90;;;;;;5053648;28;20033;-69
2021/07/12 04:00:50;;;;;;;19.08;17.40;;;17.80;99.90;;;;;;5052307;28;20045;-69
2021/07/12 04:03:16;;;;;;;30.77;20.02;;;17.90;99.90;;;;;;5051806;28;20037;-68
2021/07/12 04:05:41;;;;;;;18.42;16.50;;;18.00;99.90;;;;;;5050659;28;20086;-68
2021/07/12 04:08:07;;;;;;;21.95;17.38;;;18.00;99.90;;;;;;5051921;28;20520;-69
2021/07/12 04:10:33;;;;;;;56.45;19.90;;;18.00;99.90;;;;;;5053663;28;20505;-69
2021/07/12 04:12:59;;;;;;;30.30;19.23;;;18.00;99.90;;;;;;5053724;28;20120;-69
2021/07/12 04:15:24;;;;;;;20.23;18.33;;;17.90;99.90;;;;;;5053314;28;20091;-68
2021/07/12 04:17:50;;;;;;;20.25;18.45;;;17.90;99.90;;;;;;5053560;28;20090;-68
2021/07/12 04:20:16;;;;;;;21.30;19.27;;;17.90;99.90;;;;;;5061339;28;20047;-68
2021/07/12 04:22:43;;;;;;;21.45;19.55;;;17.90;99.90;;;;;;5054719;28;20037;-69
2021/07/12 04:25:11;;;;;;;21.50;19.48;;;18.00;99.90;;;;;;5052865;28;20132;-68
2021/07/12 04:27:38;;;;;;;20.35;18.35;;;18.00;99.90;;;;;;5053556;28;20048;-69
2021/07/12 04:30:05;;;;;;;21.77;19.75;;;18.10;99.90;;;;;;5051397;28;20048;-69
2021/07/12 04:32:31;;;;;;;21.98;20.10;;;18.10;99.90;;;;;;5053058;28;20069;-69
2021/07/12 04:34:57;;;;;;;19.83;18.23;;;18.20;99.90;;;;;;5050881;28;20467;-69
2021/07/12 04:37:22;;;;;;;19.48;17.67;;;18.20;99.90;;;;;;5066920;28;20086;-69
2021/07/12 04:39:48;;;;;;;19.88;18.27;;;18.30;99.90;;;;;;5053555;28;20041;-68
2021/07/12 04:42:14;;;;;;;19.60;18.00;;;18.30;99.90;;;;;;5052847;28;20505;-68
2021/07/12 04:44:40;;;;;;;20.02;18.38;;;18.30;99.90;;;;;;5053391;28;20065;-68
2021/07/12 04:47:06;;;;;;;20.17;18.60;;;18.40;99.90;;;;;;5052331;28;20044;-69
2021/07/12 04:49:31;;;;;;;20.52;18.77;;;18.40;99.90;;;;;;5051673;28;20098;-69
2021/07/12 04:51:57;;;;;;;18.80;17.13;;;18.40;99.90;;;;;;5052823;28;20052;-68
2021/07/12 04:54:23;;;;;;;21.63;19.60;;;18.40;99.90;;;;;;5059898;28;20045;-69
2021/07/12 04:56:48;;;;;;;18.23;16.80;;;18.40;99.90;;;;;;5062131;28;20115;-68
2021/07/12 04:59:16;;;;;;;20.98;19.08;;;18.40;99.90;;;;;;5052775;28;20045;-68
2021/07/12 05:01:42;;;;;;;19.85;17.88;;;18.40;99.90;;;;;;5052565;28;20040;-68
2021/07/12 05:04:08;;;;;;;20.08;18.25;;;18.40;99.90;;;;;;5051620;28;20029;-68
2021/07/12 05:06:34;;;;;;;19.65;18.05;;;18.40;99.90;;;;;;5052480;28;20680;-69
2021/07/12 05:09:00;;;;;;;18.58;17.08;;;18.40;99.90;;;;;;5052785;28;20098;-69
2021/07/12 05:11:28;;;;;;;18.95;17.35;;;18.50;99.90;;;;;;5060251;28;20040;-68
2021/07/12 05:13:54;;;;;;;19.70;17.98;;;18.60;99.90;;;;;;5052023;28;20041;-68
2021/07/12 05:16:20;;;;;;;17.42;16.00;;;18.60;99.90;;;;;;5051014;28;20498;-70
2021/07/12 05:18:47;;;;;;;17.17;15.88;;;18.70;99.90;;;;;;5051639;28;20041;-69
2021/07/12 05:21:14;;;;;;;16.48;15.18;;;18.70;99.90;;;;;;5045898;28;20496;-69
2021/07/12 05:23:40;;;;;;;19.60;17.95;;;18.70;99.90;;;;;;5036355;28;20041;-69
2021/07/12 05:26:06;;;;;;;18.95;17.45;;;18.60;99.90;;;;;;5052196;28;20055;-68
2021/07/12 05:28:32;;;;;;;20.38;18.67;;;18.50;99.90;;;;;;5056649;28;20119;-68
2021/07/12 05:30:58;;;;;;;17.80;16.30;;;18.50;99.90;;;;;;5069709;28;20048;-68
2021/07/12 05:33:24;;;;;;;18.80;17.10;;;18.50;99.90;;;;;;5052401;28;20052;-68
2021/07/12 05:35:50;;;;;;;18.58;16.98;;;18.50;99.90;;;;;;5052346;28;20375;-68
2021/07/12 05:38:16;;;;;;;21.38;19.60;;;18.60;99.90;;;;;;5051962;28;20041;-68
2021/07/12 05:40:41;;;;;;;20.35;18.55;;;18.60;99.90;;;;;;5052157;28;20049;-69
2021/07/12 05:43:08;;;;;;;19.35;17.73;;;18.70;99.90;;;;;;5060831;28;20490;-69
2021/07/12 05:45:34;;;;;;;22.13;19.95;;;18.80;99.90;;;;;;5070035;28;20374;-68
2021/07/12 05:48:00;;;;;;;22.13;20.33;;;18.80;99.90;;;;;;5055408;28;20045;-68
2021/07/12 05:50:26;;;;;;;23.95;21.85;;;18.90;99.90;;;;;;5049180;28;20041;-68
2021/07/12 05:52:51;;;;;;;24.38;22.30;;;18.90;99.90;;;;;;5049106;28;20533;-68
2021/07/12 05:55:17;;;;;;;24.83;22.83;;;18.90;99.90;;;;;;5049524;28;20082;-68
2021/07/12 05:57:43;;;;;;;21.52;19.83;;;19.00;99.90;;;;;;5045980;28;20036;-68
2021/07/12 06:00:10;;;;;;;23.08;21.05;;;19.20;99.90;;;;;;5031731;28;20037;-68
2021/07/12 06:02:36;;;;;;;22.27;20.38;;;19.40;99.90;;;;;;5034670;28;20087;-69
2021/07/12 06:05:03;;;;;;;19.40;17.90;;;19.30;99.90;;;;;;5038442;28;20136;-69
2021/07/12 06:07:29;;;;;;;20.58;18.83;;;19.50;99.90;;;;;;5038152;28;20041;-68
2021/07/12 06:09:54;;;;;;;20.27;18.70;;;19.60;99.90;;;;;;5037579;28;20033;-69
2021/07/12 06:12:20;;;;;;;20.73;18.95;;;19.70;99.90;;;;;;5048757;28;20049;-68
2021/07/12 06:14:45;;;;;;;19.17;17.67;;;19.80;99.90;;;;;;5040619;28;20037;-68
2021/07/12 06:17:11;;;;;;;19.88;18.27;;;19.90;99.90;;;;;;5037095;28;20104;-68
2021/07/12 06:19:37;;;;;;;17.70;16.25;;;20.00;99.90;;;;;;5056408;28;20710;-68
2021/07/12 06:22:04;;;;;;;19.40;17.90;;;20.00;99.90;;;;;;5057975;28;20095;-69
2021/07/12 06:24:30;;;;;;;19.85;18.25;;;20.10;99.90;;;;;;5050177;28;20161;-69
2021/07/12 06:26:56;;;;;;;20.85;19.15;;;20.20;99.90;;;;;;5048710;28;20045;-68
2021/07/12 06:29:22;;;;;;;20.63;19.10;;;20.10;99.90;;;;;;5049765;28;20394;-68
2021/07/12 06:31:48;;;;;;;20.25;18.60;;;20.10;99.90;;;;;;5051163;28;20043;-68
2021/07/12 06:34:14;;;;;;;17.30;16.00;;;20.20;99.90;;;;;;5042842;28;20461;-68
2021/07/12 06:36:40;;;;;;;19.20;17.70;;;20.40;99.90;;;;;;5041931;28;20032;-68
2021/07/12 06:39:06;;;;;;;16.77;15.45;;;20.50;99.90;;;;;;5050634;28;20487;-68
2021/07/12 06:41:33;;;;;;;18.33;16.90;;;20.60;99.90;;;;;;5050811;28;20045;-67
2021/07/12 06:43:59;;;;;;;16.98;15.63;;;20.70;99.90;;;;;;5063114;28;20047;-67
2021/07/12 06:46:25;;;;;;;19.83;18.27;;;20.80;99.90;;;;;;5065193;28;20037;-67
2021/07/12 06:48:50;;;;;;;16.98;15.65;;;20.90;99.90;;;;;;5050549;28;20497;-67
2021/07/12 06:51:17;;;;;;;18.98;17.45;;;21.10;99.90;;;;;;5049297;28;20094;-68
2021/07/12 06:53:43;;;;;;;17.08;15.82;;;21.20;99.90;;;;;;5066546;28;20098;-68
2021/07/12 06:56:09;;;;;;;16.95;15.73;;;21.40;99.90;;;;;;5067230;28;20036;-67
2021/07/12 06:58:35;;;;;;;16.92;15.52;;;21.40;99.90;;;;;;5049902;28;20060;-68
2021/07/12 07:01:00;;;;;;;16.88;15.50;;;21.30;99.90;;;;;;5050736;28;20356;-67
2021/07/12 07:03:26;;;;;;;16.90;15.63;;;21.30;99.90;;;;;;5050544;28;20473;-67
2021/07/12 07:05:52;;;;;;;17.52;16.13;;;21.30;99.90;;;;;;5039273;28;20079;-67
2021/07/12 07:08:17;;;;;;;17.58;16.27;;;21.40;99.90;;;;;;5042899;28;20535;-67
2021/07/12 07:10:43;;;;;;;17.83;16.42;;;21.50;99.90;;;;;;5046936;28;20090;-67
2021/07/12 07:13:08;;;;;;;15.18;14.07;;;21.50;99.90;;;;;;5054541;28;20366;-68
2021/07/12 07:15:34;;;;;;;16.25;15.02;;;21.70;99.90;;;;;;5062838;28;20119;-67
2021/07/12 07:18:00;;;;;;;16.30;14.90;;;22.00;99.90;;;;;;5054610;28;20109;-67
2021/07/12 07:20:26;;;;;;;14.57;13.48;;;22.50;99.90;;;;;;5041129;28;20591;-67
2021/07/12 07:22:52;;;;;;;14.60;13.50;;;23.10;99.90;;;;;;5054588;28;20041;-67
2021/07/12 07:25:17;;;;;;;14.55;13.50;;;23.60;99.90;;;;;;5053912;28;20437;-67
2021/07/12 07:27:44;;;;;;;14.73;13.65;;;23.70;99.90;;;;;;5053548;28;20064;-67
2021/07/12 07:30:12;;;;;;;13.50;12.43;;;24.00;99.90;;;;;;5050873;28;20040;-67
2021/07/12 07:32:38;;;;;;;16.05;14.75;;;24.20;99.90;;;;;;5053803;28;20036;-67
2021/07/12 07:35:05;;;;;;;14.02;13.02;;;24.10;99.90;;;;;;5054197;28;20083;-67
2021/07/12 07:37:31;;;;;;;15.60;14.30;;;24.50;99.90;;;;;;5053952;28;20120;-67
2021/07/12 07:39:57;;;;;;;13.80;12.77;;;24.30;99.90;;;;;;5054242;28;20127;-68
2021/07/12 07:42:23;;;;;;;13.50;12.50;;;24.60;99.90;;;;;;5054025;28;20040;-67
2021/07/12 07:44:49;;;;;;;12.23;11.32;;;24.60;99.90;;;;;;5052894;28;20037;-68
2021/07/12 07:47:15;;;;;;;13.55;12.45;;;24.10;99.90;;;;;;5051202;28;20055;-68
2021/07/12 07:49:41;;;;;;;12.45;11.55;;;23.80;99.90;;;;;;5052741;28;20047;-68
2021/07/12 07:52:07;;;;;;;11.23;10.43;;;23.80;99.90;;;;;;5051997;28;20056;-67
2021/07/12 07:54:33;;;;;;;12.20;11.20;;;24.10;99.90;;;;;;5050860;28;20036;-68
2021/07/12 07:56:59;;;;;;;11.30;10.45;;;24.50;99.90;;;;;;5052126;28;20647;-68
2021/07/12 07:59:25;;;;;;;11.63;10.73;;;24.90;99.90;;;;;;5053537;28;20040;-68
2021/07/12 08:01:50;;;;;;;12.20;11.20;;;24.80;99.90;;;;;;5053099;28;20040;-67
2021/07/12 08:04:16;;;;;;;11.65;10.75;;;24.50;99.90;;;;;;5051562;28;20033;-68
2021/07/12 08:06:41;;;;;;;10.77;9.93;;;24.70;99.90;;;;;;5053003;28;20047;-68
2021/07/12 08:09:07;;;;;;;11.15;10.25;;;25.10;99.90;;;;;;5052936;28;20094;-68
2021/07/12 08:11:33;;;;;;;9.30;8.68;;;25.20;99.90;;;;;;5052969;28;20131;-68
2021/07/12 08:14:03;;;;;;;10.15;9.35;;;25.40;99.50;;;;;;5052527;28;20029;-68
2021/07/12 08:16:29;;;;;;;11.38;10.52;;;25.40;99.80;;;;;;5035095;28;20434;-68
2021/07/12 08:18:54;;;;;;;10.80;9.98;;;25.20;99.90;;;;;;5053247;28;20045;-68
2021/07/12 08:21:21;;;;;;;10.25;9.45;;;24.80;99.90;;;;;;5044566;28;20510;-68
2021/07/12 08:23:47;;;;;;;10.90;10.02;;;24.70;99.90;;;;;;5045692;28;20041;-68
2021/07/12 08:26:13;;;;;;;11.07;10.18;;;24.30;99.90;;;;;;5052436;28;20057;-68
2021/07/12 08:28:40;;;;;;;10.68;9.88;;;23.80;99.90;;;;;;5035358;28;20048;-68
2021/07/12 08:31:06;;;;;;;10.15;9.38;;;24.10;99.90;;;;;;5049851;28;20032;-68
2021/07/12 08:33:32;;;;;;;11.15;10.25;;;23.80;99.90;;;;;;5042649;28;20624;-68
2021/07/12 08:35:58;;;;;;;11.00;10.13;;;23.90;99.90;;;;;;5039632;28;20032;-67
2021/07/12 08:38:25;;;;;;;13.48;10.05;;;23.80;99.90;;;;;;5052961;28;20094;-67
2021/07/12 08:40:53;;;;;;;10.23;9.40;;;23.90;99.90;;;;;;5050891;28;20367;-67
2021/07/12 08:43:19;;;;;;;9.48;8.82;;;23.80;99.90;;;;;;5047097;28;20044;-68
2021/07/12 08:45:45;;;;;;;10.20;9.50;;;23.80;99.90;;;;;;5071751;28;20037;-68
2021/07/12 08:48:11;;;;;;;10.43;9.63;;;24.00;99.90;;;;;;5054557;28;20033;-67
2021/07/12 08:50:36;;;;;;;10.85;10.05;;;23.70;99.90;;;;;;5052697;28;20048;-68
2021/07/12 08:53:02;;;;;;;9.75;8.95;;;23.80;99.90;;;;;;5051261;28;20037;-68
2021/07/12 08:55:28;;;;;;;10.45;9.50;;;24.20;99.90;;;;;;5052323;28;20036;-68
2021/07/12 08:58:27;;;;;;;9.38;8.60;;;24.40;99.90;;;;;;5052611;28;20064;-68
2021/07/12 09:01:03;;;;;;;10.25;9.40;;;24.30;99.90;;;;;;5047673;28;20108;-67
2021/07/12 09:03:46;;;;;;;10.27;9.48;;;24.50;99.90;;;;;;5052973;28;20037;-67
2021/07/12 09:06:16;;;;;;;10.45;9.65;;;24.20;99.90;;;;;;5052579;28;20033;-68
2021/07/12 09:08:52;;;;;;;10.70;9.82;;;24.10;99.90;;;;;;5052799;28;20494;-68
2021/07/12 09:11:26;;;;;;;9.73;8.82;;;24.60;99.90;;;;;;5036452;28;20037;-68
2021/07/12 09:13:55;;;;;;;9.70;8.90;;;24.60;99.90;;;;;;5052550;28;20040;-68
2021/07/12 09:16:51;;;;;;;8.18;7.55;;;24.90;99.90;;;;;;5049377;28;20038;-68
2021/07/12 09:19:29;;;;;;;8.38;7.75;;;24.90;99.10;;;;;;5033593;28;20049;-67
2021/07/12 09:22:02;;;;;;;8.73;8.02;;;24.80;98.40;;;;;;5022781;28;20048;-68
2021/07/12 09:24:42;;;;;;;9.55;8.77;;;24.90;99.30;;;;;;5037781;28;20670;-68
2021/07/12 09:27:10;;;;;;;8.68;8.07;;;25.20;98.20;;;;;;5045690;28;20051;-68
2021/07/12 09:29:47;;;;;;;9.18;8.48;;;25.20;98.70;;;;;;5045176;28;20059;-68
2021/07/12 09:32:20;;;;;;;9.38;8.57;;;25.20;99.00;;;;;;5042782;28;20482;-68
2021/07/12 09:34:46;;;;;;;10.88;9.98;;;25.70;97.00;;;;;;5045803;28;20041;-68
2021/07/12 09:37:15;;;;;;;10.18;9.38;;;25.90;97.40;;;;;;5039865;28;20032;-68
2021/07/12 09:39:43;;;;;;;9.70;8.90;;;25.70;97.40;;;;;;5041112;28;20048;-68
2021/07/12 09:42:17;;;;;;;10.02;9.23;;;26.10;97.30;;;;;;5043064;28;20075;-69
2021/07/12 09:44:46;;;;;;;10.48;9.57;;;26.20;96.50;;;;;;5038422;28;20029;-68
2021/07/12 09:47:22;;;;;;;8.88;8.18;;;26.40;96.60;;;;;;5042177;28;20036;-68
2021/07/12 09:49:50;;;;;;;8.30;7.60;;;26.50;95.60;;;;;;5039973;28;20098;-68
2021/07/12 09:52:18;;;;;;;12.00;11.02;;;26.70;94.50;;;;;;5038673;28;20049;-68
2021/07/12 09:54:48;;;;;;;9.35;8.65;;;26.90;95.40;;;;;;5043756;28;20359;-68
2021/07/12 09:57:20;;;;;;;10.57;9.60;;;26.90;95.20;;;;;;5050412;28;20536;-68
2021/07/12 10:00:00;;;;;;;10.05;9.18;;;27.20;94.40;;;;;;5047223;28;20086;-66
2021/07/12 10:02:29;;;;;;;9.68;8.93;;;27.20;94.60;;;;;;5031693;28;20417;-66
2021/07/12 10:05:00;;;;;;;9.70;9.00;;;26.90;93.80;;;;;;5048595;28;20029;-66
2021/07/12 10:07:27;;;;;;;8.88;8.18;;;26.40;95.60;;;;;;5047846;28;20032;-66
2021/07/12 10:09:53;;;;;;;8.90;8.20;;;26.70;95.30;;;;;;5045894;28;20040;-66
2021/07/12 10:12:19;;;;;;;10.02;9.23;;;26.80;95.00;;;;;;5041010;28;20033;-66
2021/07/12 10:14:45;;;;;;;10.00;9.20;;;26.80;95.00;;;;;;5042843;28;20457;-66
2021/07/12 10:17:12;;;;;;;10.23;9.32;;;26.20;95.00;;;;;;5051341;28;20087;-66
2021/07/12 10:19:38;;;;;;;9.05;8.23;;;26.20;95.80;;;;;;5051067;28;20041;-66
2021/07/12 10:22:05;;;;;;;10.52;9.73;;;26.30;96.50;;;;;;5049717;28;20076;-66
2021/07/12 10:24:43;;;;;;;10.27;9.38;;;26.40;95.40;;;;;;5050960;28;20044;-66
2021/07/12 10:27:24;;;;;;;9.60;8.80;;;26.60;95.20;;;;;;5050899;28;20049;-66
2021/07/12 10:29:52;;;;;;;10.40;9.63;;;26.70;95.50;;;;;;5054836;28;20525;-66
2021/07/12 10:32:25;;;;;;;9.65;8.85;;;26.30;95.40;;;;;;5049886;28;20140;-66
2021/07/12 10:34:58;;;;;;;10.20;9.45;;;26.00;96.90;;;;;;5050775;28;20033;-66
2021/07/12 10:37:27;;;;;;;9.45;8.75;;;26.20;96.10;;;;;;5046664;28;20037;-63
2021/07/12 10:40:18;;;;;;;10.02;9.30;;;26.20;96.10;;;;;;5050485;28;20048;-62
2021/07/12 10:42:43;;;;;;;9.98;9.18;;;26.40;95.70;;;;;;5051057;28;20037;-62
2021/07/12 10:45:16;;;;;;;9.82;9.13;;;26.50;96.00;;;;;;5057745;28;20678;-62
2021/07/12 10:47:56;;;;;;;11.13;10.00;;;26.60;96.50;;;;;;5069599;28;20515;-62
2021/07/12 10:50:44;;;;;;;10.00;9.15;;;26.70;95.50;;;;;;5058193;28;20066;-62
2021/07/12 10:53:15;;;;;;;10.48;9.68;;;26.70;95.30;;;;;;5050430;28;20067;-62
2021/07/12 10:56:08;;;;;;;11.18;10.27;;;26.60;95.40;;;;;;5050858;28;20120;-62
2021/07/12 10:58:35;;;;;;;10.52;9.73;;;26.80;94.90;;;;;;5045035;28;20052;-62
2021/07/12 11:01:04;;;;;;;11.00;10.05;;;26.70;95.10;;;;;;5051395;28;20033;-62
2021/07/12 11:03:49;;;;;;;10.13;9.40;;;26.20;96.40;;;;;;5042139;28;20095;-61
2021/07/12 11:06:14;;;;;;;10.68;9.88;;;26.40;95.80;;;;;;5045000;28;20076;-62
2021/07/12 11:08:47;;;;;;;10.43;9.63;;;26.50;95.20;;;;;;5048264;28;20472;-62
2021/07/12 11:11:37;;;;;;;11.27;10.45;;;26.30;96.20;;;;;;5049682;28;20033;-62
2021/07/12 11:14:06;;;;;;;10.18;9.40;;;26.30;95.70;;;;;;5042689;28;20053;-63
2021/07/12 11:16:47;;;;;;;10.65;9.77;;;26.30;96.30;;;;;;5048844;28;20556;-63
2021/07/12 11:19:24;;;;;;;10.25;9.38;;;26.30;96.30;;;;;;5049667;28;20045;-62
2021/07/12 11:21:50;;;;;;;9.93;9.02;;;26.40;96.60;;;;;;5038521;28;20038;-62
2021/07/12 11:24:22;;;;;;;9.13;8.43;;;26.40;96.00;;;;;;5049407;28;20036;-62
2021/07/12 11:26:56;;;;;;;9.40;8.70;;;26.40;96.60;;;;;;5050145;28;20893;-62
2021/07/12 11:29:31;;;;;;;9.30;8.60;;;26.40;96.70;;;;;;5047745;28;20041;-62
2021/07/12 11:32:07;;;;;;;10.80;9.80;;;26.40;96.70;;;;;;5046861;28;20049;-62
2021/07/12 11:34:35;;;;;;;9.90;9.10;;;26.70;95.00;;;;;;5049240;28;20032;-62
2021/07/12 11:37:10;;;;;;;11.77;10.80;;;26.60;95.90;;;;;;5049530;28;20037;-62
2021/07/12 11:40:00;;;;;;;11.43;10.52;;;26.50;96.60;;;;;;5048273;28;20045;-62
2021/07/12 11:42:40;;;;;;;10.95;10.05;;;26.50;96.90;;;;;;5052150;28;20040;-62
2021/07/12 11:45:11;;;;;;;11.00;10.20;;;26.90;96.10;;;;;;5057032;28;20041;-62
2021/07/12 11:47:39;;;;;;;11.45;10.55;;;27.20;93.60;;;;;;5050476;28;20048;-62
2021/07/12 11:50:16;;;;;;;10.60;9.75;;;27.20;95.10;;;;;;5050065;28;20029;-62
2021/07/12 11:52:45;;;;;;;10.80;9.82;;;27.10;94.90;;;;;;5054854;28;20036;-62
2021/07/12 11:55:17;;;;;;;11.52;10.63;;;27.40;94.20;;;;;;5048584;28;20037;-67
2021/07/12 11:57:50;;;;;;;11.45;10.38;;;27.00;94.10;;;;;;5051769;28;20044;-67
2021/07/12 12:00:23;;;;;;;10.57;9.77;;;27.10;94.10;;;;;;5053003;28;20041;-67
2021/07/12 12:02:56;;;;;;;11.45;10.55;;;27.10;93.40;;;;;;5054088;28;20036;-67
2021/07/12 12:05:22;;;;;;;11.27;10.27;;;27.10;93.80;;;;;;5054382;28;20525;-67
2021/07/12 12:07:48;;;;;;;11.10;10.23;;;27.00;94.00;;;;;;5056190;28;20111;-67
2021/07/12 12:10:17;;;;;;;11.05;10.02;;;27.00;92.90;;;;;;5074032;28;20040;-66
2021/07/12 12:12:51;;;;;;;12.23;11.23;;;27.20;92.10;;;;;;5073984;28;20500;-66
2021/07/12 12:15:28;;;;;;;11.73;10.77;;;27.40;92.90;;;;;;5071586;28;20037;-66
2021/07/12 12:17:56;;;;;;;10.15;9.40;;;27.00;93.70;;;;;;5053777;28;20060;-67
2021/07/12 12:20:28;;;;;;;10.73;9.88;;;26.60;93.70;;;;;;5053648;28;20503;-67
2021/07/12 12:23:08;;;;;;;12.65;11.55;;;26.80;94.00;;;;;;5033972;28;20037;-67
2021/07/12 12:25:44;;;;;;;14.07;12.98;;;26.90;93.80;;;;;;5039488;28;20078;-66
2021/07/12 12:28:31;;;;;;;11.25;10.35;;;26.90;93.80;;;;;;5073792;28;20125;-66
2021/07/12 12:31:09;;;;;;;10.93;9.90;;;27.20;93.90;;;;;;5053775;28;20041;-67
2021/07/12 12:33:44;;;;;;;12.68;11.68;;;27.40;93.90;;;;;;5033836;28;20057;-67
2021/07/12 12:36:17;;;;;;;11.50;10.60;;;27.30;93.60;;;;;;5036364;28;20164;-67
2021/07/12 12:38:57;;;;;;;12.57;11.57;;;27.30;93.80;;;;;;5053649;28;20037;-67
2021/07/12 12:41:26;;;;;;;11.90;10.85;;;27.20;93.50;;;;;;5053384;28;20573;-67
2021/07/12 12:44:15;;;;;;;10.68;9.77;;;27.20;93.40;;;;;;5067731;28;20082;-66